sensor_id;sensor_type;location;lat;lon;timestamp;temperature;humidity
22682;DHT22;11508;50.856;4.380;2023-04-24T00:01:35;9.70;99.90
22682;DHT22;11508;50.856;4.380;2023-04-24T00:04:02;9.60;99.90
22682;DHT22;11508;50.856;4.380;2023-04-24T00:06:29;9.70;99.90
22682;DHT22;11508;50.856;4.380;2023-04-24T00:08:59;9.90;99.90
22682;DHT22;11508;50.856;4.380;2023-04-24T00:11:26;9.80;99.90
22682;DHT22;11508;50.856;4.380;2023-04-24T00:13:52;9.90;99.90
22682;DHT22;11508;50.856;4.380;2023-04-24T00:16:18;9.80;99.90
22682;DHT22;11508;50.856;4.380;2023-04-24T00:18:43;9.70;99.90
22682;DHT22;11508;50.856;4.380;2023-04-24T00:21:10;9.70;99.90
22682;DHT22;11508;50.856;4.380;2023-04-24T00:23:36;9.50;99.90
22682;DHT22;11508;50.856;4.380;2023-04-24T00:26:02;9.50;99.90
22682;DHT22;11508;50.856;4.380;2023-04-24T00:28:28;9.50;99.90
22682;DHT22;11508;50.856;4.380;2023-04-24T00:30:53;9.40;99.90
22682;DHT22;11508;50.856;4.380;2023-04-24T00:33:19;9.40;99.90
22682;DHT22;11508;50.856;4.380;2023-04-24T00:35:46;9.40;99.90
22682;DHT22;11508;50.856;4.380;2023-04-24T00:38:12;9.40;99.90
22682;DHT22;11508;50.856;4.380;2023-04-24T00:40:37;9.40;99.90
22682;DHT22;11508;50.856;4.380;2023-04-24T00:43:03;9.40;99.90
22682;DHT22;11508;50.856;4.380;2023-04-24T00:45:29;9.40;99.90
22682;DHT22;11508;50.856;4.380;2023-04-24T00:47:56;9.30;99.90
22682;DHT22;11508;50.856;4.380;2023-04-24T00:50:24;9.50;99.90
22682;DHT22;11508;50.856;4.380;2023-04-24T00:52:50;9.50;99.90
22682;DHT22;11508;50.856;4.380;2023-04-24T00:55:16;9.60;99.90
22682;DHT22;11508;50.856;4.380;2023-04-24T00:57:43;9.50;99.90
22682;DHT22;11508;50.856;4.380;2023-04-24T01:00:09;9.60;99.90
22682;DHT22;11508;50.856;4.380;2023-04-24T01:02:39;9.60;99.90
22682;DHT22;11508;50.856;4.380;2023-04-24T01:05:09;9.50;99.90
22682;DHT22;11508;50.856;4.380;2023-04-24T01:07:35;9.40;99.90
22682;DHT22;11508;50.856;4.380;2023-04-24T01:10:01;9.40;99.90
22682;DHT22;11508;50.856;4.380;2023-04-24T01:12:27;9.40;99.90
22682;DHT22;11508;50.856;4.380;2023-04-24T01:14:53;9.30;99.90
22682;DHT22;11508;50.856;4.380;2023-04-24T01:17:20;9.40;99.90
22682;DHT22;11508;50.856;4.380;2023-04-24T01:19:46;9.40;99.90
22682;DHT22;11508;50.856;4.380;2023-04-24T01:22:15;9.30;99.90
22682;DHT22;11508;50.856;4.380;2023-04-24T01:24:42;9.30;99.90
22682;DHT22;11508;50.856;4.380;2023-04-24T01:27:09;9.10;99.90
22682;DHT22;11508;50.856;4.380;2023-04-24T01:29:36;9.00;99.90
22682;DHT22;11508;50.856;4.380;2023-04-24T01:32:03;9.00;99.90
22682;DHT22;11508;50.856;4.380;2023-04-24T01:34:30;9.10;99.90
22682;DHT22;11508;50.856;4.380;2023-04-24T01:36:55;9.10;99.90
22682;DHT22;11508;50.856;4.380;2023-04-24T01:39:22;9.10;99.90
22682;DHT22;11508;50.856;4.380;2023-04-24T01:41:52;9.10;99.90
22682;DHT22;11508;50.856;4.380;2023-04-24T01:44:18;9.10;99.90
22682;DHT22;11508;50.856;4.380;2023-04-24T01:46:44;9.10;99.90
22682;DHT22;11508;50.856;4.380;2023-04-24T01:49:10;9.10;99.90
22682;DHT22;11508;50.856;4.380;2023-04-24T01:51:36;9.10;99.90
22682;DHT22;11508;50.856;4.380;2023-04-24T01:54:02;9.10;99.90
22682;DHT22;11508;50.856;4.380;2023-04-24T01:56:29;8.90;99.90
22682;DHT22;11508;50.856;4.380;2023-04-24T01:58:56;8.90;99.90
22682;DHT22;11508;50.856;4.380;2023-04-24T02:01:24;8.90;99.90
22682;DHT22;11508;50.856;4.380;2023-04-24T02:03:50;8.90;99.90
22682;DHT22;11508;50.856;4.380;2023-04-24T02:06:16;9.00;99.90
22682;DHT22;11508;50.856;4.380;2023-04-24T02:08:42;9.00;99.90
22682;DHT22;11508;50.856;4.380;2023-04-24T02:11:10;9.00;99.90
22682;DHT22;11508;50.856;4.380;2023-04-24T02:13:36;9.10;99.90
22682;DHT22;11508;50.856;4.380;2023-04-24T02:16:01;9.00;99.90
22682;DHT22;11508;50.856;4.380;2023-04-24T02:18:27;9.10;99.90
22682;DHT22;11508;50.856;4.380;2023-04-24T02:20:53;9.10;99.90
22682;DHT22;11508;50.856;4.380;2023-04-24T02:23:19;9.00;99.90
22682;DHT22;11508;50.856;4.380;2023-04-24T02:25:44;9.10;99.90
22682;DHT22;11508;50.856;4.380;2023-04-24T02:28:11;9.10;99.90
22682;DHT22;11508;50.856;4.380;2023-04-24T02:30:36;9.10;99.90
22682;DHT22;11508;50.856;4.380;2023-04-24T02:33:02;9.10;99.90
22682;DHT22;11508;50.856;4.380;2023-04-24T02:35:28;9.10;99.90
22682;DHT22;11508;50.856;4.380;2023-04-24T02:37:55;9.10;99.90
22682;DHT22;11508;50.856;4.380;2023-04-24T02:40:20;9.00;99.90
22682;DHT22;11508;50.856;4.380;2023-04-24T02:42:46;9.00;99.90
22682;DHT22;11508;50.856;4.380;2023-04-24T02:45:12;9.00;99.90
22682;DHT22;11508;50.856;4.380;2023-04-24T02:47:37;9.00;99.90
22682;DHT22;11508;50.856;4.380;2023-04-24T02:50:03;9.00;99.90
22682;DHT22;11508;50.856;4.380;2023-04-24T02:52:29;8.90;99.90
22682;DHT22;11508;50.856;4.380;2023-04-24T02:54:55;8.90;99.90
22682;DHT22;11508;50.856;4.380;2023-04-24T02:57:20;8.90;99.90
22682;DHT22;11508;50.856;4.380;2023-04-24T02:59:46;9.00;99.90
22682;DHT22;11508;50.856;4.380;2023-04-24T03:02:12;8.90;99.90
22682;DHT22;11508;50.856;4.380;2023-04-24T03:04:38;8.90;99.90
22682;DHT22;11508;50.856;4.380;2023-04-24T03:07:05;8.90;99.90
22682;DHT22;11508;50.856;4.380;2023-04-24T03:09:31;8.90;99.90
22682;DHT22;11508;50.856;4.380;2023-04-24T03:11:56;8.90;99.90
22682;DHT22;11508;50.856;4.380;2023-04-24T03:14:22;8.80;99.90
22682;DHT22;11508;50.856;4.380;2023-04-24T03:16:48;8.90;99.90
22682;DHT22;11508;50.856;4.380;2023-04-24T03:19:13;8.80;99.90
22682;DHT22;11508;50.856;4.380;2023-04-24T03:21:39;8.80;99.90
22682;DHT22;11508;50.856;4.380;2023-04-24T03:24:07;8.70;99.90
22682;DHT22;11508;50.856;4.380;2023-04-24T03:26:33;8.80;99.90
22682;DHT22;11508;50.856;4.380;2023-04-24T03:28:59;8.80;99.90
22682;DHT22;11508;50.856;4.380;2023-04-24T03:31:25;8.80;99.90
22682;DHT22;11508;50.856;4.380;2023-04-24T03:33:50;8.70;99.90
22682;DHT22;11508;50.856;4.380;2023-04-24T03:36:16;8.60;99.90
22682;DHT22;11508;50.856;4.380;2023-04-24T03:38:43;8.60;99.90
22682;DHT22;11508;50.856;4.380;2023-04-24T03:41:08;8.60;99.90
22682;DHT22;11508;50.856;4.380;2023-04-24T03:43:34;8.60;99.90
22682;DHT22;11508;50.856;4.380;2023-04-24T03:46:00;8.60;99.90
22682;DHT22;11508;50.856;4.380;2023-04-24T03:48:25;8.60;99.90
22682;DHT22;11508;50.856;4.380;2023-04-24T03:50:51;8.70;99.90
22682;DHT22;11508;50.856;4.380;2023-04-24T03:53:17;8.70;99.90
22682;DHT22;11508;50.856;4.380;2023-04-24T03:55:42;8.70;99.90
22682;DHT22;11508;50.856;4.380;2023-04-24T03:58:08;8.80;99.90
22682;DHT22;11508;50.856;4.380;2023-04-24T04:00:34;8.80;99.90
22682;DHT22;11508;50.856;4.380;2023-04-24T04:02:59;8.80;99.90
22682;DHT22;11508;50.856;4.380;2023-04-24T04:05:25;8.80;99.90
22682;DHT22;11508;50.856;4.380;2023-04-24T04:07:51;8.90;99.90
22682;DHT22;11508;50.856;4.380;2023-04-24T04:10:16;8.80;99.90
22682;DHT22;11508;50.856;4.380;2023-04-24T04:12:42;8.90;99.90
22682;DHT22;11508;50.856;4.380;2023-04-24T04:15:08;8.90;99.90
22682;DHT22;11508;50.856;4.380;2023-04-24T04:17:34;9.00;99.90
22682;DHT22;11508;50.856;4.380;2023-04-24T04:20:00;8.90;99.90
22682;DHT22;11508;50.856;4.380;2023-04-24T04:22:26;8.90;99.90
22682;DHT22;11508;50.856;4.380;2023-04-24T04:24:52;8.90;99.90
22682;DHT22;11508;50.856;4.380;2023-04-24T04:27:18;8.90;99.90
22682;DHT22;11508;50.856;4.380;2023-04-24T04:29:44;8.80;99.90
22682;DHT22;11508;50.856;4.380;2023-04-24T04:32:10;8.90;99.90
22682;DHT22;11508;50.856;4.380;2023-04-24T04:34:35;8.90;99.90
22682;DHT22;11508;50.856;4.380;2023-04-24T04:37:03;8.90;99.90
22682;DHT22;11508;50.856;4.380;2023-04-24T04:39:29;8.90;99.90
22682;DHT22;11508;50.856;4.380;2023-04-24T04:41:55;9.00;99.90
22682;DHT22;11508;50.856;4.380;2023-04-24T04:44:20;9.00;99.90
22682;DHT22;11508;50.856;4.380;2023-04-24T04:46:46;9.00;99.90
22682;DHT22;11508;50.856;4.380;2023-04-24T04:49:12;9.00;99.90
22682;DHT22;11508;50.856;4.380;2023-04-24T04:51:38;9.00;99.90
22682;DHT22;11508;50.856;4.380;2023-04-24T04:54:04;9.00;99.90
22682;DHT22;11508;50.856;4.380;2023-04-24T04:56:30;9.00;99.90
22682;DHT22;11508;50.856;4.380;2023-04-24T04:58:55;8.90;99.90
22682;DHT22;11508;50.856;4.380;2023-04-24T05:01:21;8.90;99.90
22682;DHT22;11508;50.856;4.380;2023-04-24T05:03:48;8.90;99.90
22682;DHT22;11508;50.856;4.380;2023-04-24T05:06:14;8.90;99.90
22682;DHT22;11508;50.856;4.380;2023-04-24T05:08:40;8.90;99.90
22682;DHT22;11508;50.856;4.380;2023-04-24T05:11:06;9.00;99.90
22682;DHT22;11508;50.856;4.380;2023-04-24T05:13:31;8.90;99.90
22682;DHT22;11508;50.856;4.380;2023-04-24T05:15:57;8.80;99.90
22682;DHT22;11508;50.856;4.380;2023-04-24T05:18:23;8.90;99.90
22682;DHT22;11508;50.856;4.380;2023-04-24T05:20:49;8.90;99.90
22682;DHT22;11508;50.856;4.380;2023-04-24T05:23:14;8.90;99.90
22682;DHT22;11508;50.856;4.380;2023-04-24T05:25:40;9.00;99.90
22682;DHT22;11508;50.856;4.380;2023-04-24T05:28:06;9.00;99.90
22682;DHT22;11508;50.856;4.380;2023-04-24T05:30:32;9.00;99.90
22682;DHT22;11508;50.856;4.380;2023-04-24T05:32:58;8.90;99.90
22682;DHT22;11508;50.856;4.380;2023-04-24T05:35:24;8.90;99.90
22682;DHT22;11508;50.856;4.380;2023-04-24T05:37:49;8.80;99.90
22682;DHT22;11508;50.856;4.380;2023-04-24T05:40:16;8.80;99.90
22682;DHT22;11508;50.856;4.380;2023-04-24T05:42:42;8.90;99.90
22682;DHT22;11508;50.856;4.380;2023-04-24T05:45:08;8.90;99.90
22682;DHT22;11508;50.856;4.380;2023-04-24T05:47:34;8.80;99.90
22682;DHT22;11508;50.856;4.380;2023-04-24T05:50:00;8.80;99.90
22682;DHT22;11508;50.856;4.380;2023-04-24T05:52:26;8.70;99.90
22682;DHT22;11508;50.856;4.380;2023-04-24T05:54:51;8.70;99.90
22682;DHT22;11508;50.856;4.380;2023-04-24T05:57:17;8.70;99.90
22682;DHT22;11508;50.856;4.380;2023-04-24T05:59:43;8.70;99.90
22682;DHT22;11508;50.856;4.380;2023-04-24T06:02:08;8.70;99.90
22682;DHT22;11508;50.856;4.380;2023-04-24T06:04:34;8.70;99.90
22682;DHT22;11508;50.856;4.380;2023-04-24T06:07:00;8.60;99.90
22682;DHT22;11508;50.856;4.380;2023-04-24T06:09:26;8.60;99.90
22682;DHT22;11508;50.856;4.380;2023-04-24T06:11:51;8.60;99.90
22682;DHT22;11508;50.856;4.380;2023-04-24T06:14:20;8.60;99.90
22682;DHT22;11508;50.856;4.380;2023-04-24T06:16:46;8.50;99.90
22682;DHT22;11508;50.856;4.380;2023-04-24T06:19:12;8.60;99.90
22682;DHT22;11508;50.856;4.380;2023-04-24T06:21:37;8.50;99.90
22682;DHT22;11508;50.856;4.380;2023-04-24T06:24:03;8.50;99.90
22682;DHT22;11508;50.856;4.380;2023-04-24T06:26:30;8.50;99.90
22682;DHT22;11508;50.856;4.380;2023-04-24T06:28:55;8.40;99.90
22682;DHT22;11508;50.856;4.380;2023-04-24T06:31:21;8.40;99.90
22682;DHT22;11508;50.856;4.380;2023-04-24T06:33:48;8.40;99.90
22682;DHT22;11508;50.856;4.380;2023-04-24T06:36:14;8.50;99.90
22682;DHT22;11508;50.856;4.380;2023-04-24T06:38:41;8.60;99.90
22682;DHT22;11508;50.856;4.380;2023-04-24T06:41:07;8.60;99.90
22682;DHT22;11508;50.856;4.380;2023-04-24T06:43:32;8.60;99.90
22682;DHT22;11508;50.856;4.380;2023-04-24T06:45:59;8.70;99.90
22682;DHT22;11508;50.856;4.380;2023-04-24T06:48:25;8.70;99.90
22682;DHT22;11508;50.856;4.380;2023-04-24T06:50:52;8.80;99.90
22682;DHT22;11508;50.856;4.380;2023-04-24T06:53:17;8.80;99.90
22682;DHT22;11508;50.856;4.380;2023-04-24T06:55:43;8.90;99.90
22682;DHT22;11508;50.856;4.380;2023-04-24T06:58:11;8.90;99.90
22682;DHT22;11508;50.856;4.380;2023-04-24T07:00:37;9.00;99.90
22682;DHT22;11508;50.856;4.380;2023-04-24T07:03:03;9.00;99.90
22682;DHT22;11508;50.856;4.380;2023-04-24T07:05:31;9.10;99.90
22682;DHT22;11508;50.856;4.380;2023-04-24T07:07:59;9.00;99.90
22682;DHT22;11508;50.856;4.380;2023-04-24T07:10:24;9.00;99.90
22682;DHT22;11508;50.856;4.380;2023-04-24T07:12:52;9.10;99.90
22682;DHT22;11508;50.856;4.380;2023-04-24T07:15:18;9.20;99.90
22682;DHT22;11508;50.856;4.380;2023-04-24T07:17:43;9.20;99.90
22682;DHT22;11508;50.856;4.380;2023-04-24T07:20:10;9.50;99.90
22682;DHT22;11508;50.856;4.380;2023-04-24T07:22:37;9.60;99.90
22682;DHT22;11508;50.856;4.380;2023-04-24T07:25:04;9.90;99.90
22682;DHT22;11508;50.856;4.380;2023-04-24T07:27:30;10.00;99.90
22682;DHT22;11508;50.856;4.380;2023-04-24T07:29:56;10.00;99.90
22682;DHT22;11508;50.856;4.380;2023-04-24T07:32:21;10.20;99.90
22682;DHT22;11508;50.856;4.380;2023-04-24T07:34:47;10.10;99.90
22682;DHT22;11508;50.856;4.380;2023-04-24T07:37:13;9.90;99.90
22682;DHT22;11508;50.856;4.380;2023-04-24T07:39:38;9.90;99.90
22682;DHT22;11508;50.856;4.380;2023-04-24T07:42:04;9.90;99.90
22682;DHT22;11508;50.856;4.380;2023-04-24T07:44:30;10.20;99.90
22682;DHT22;11508;50.856;4.380;2023-04-24T07:46:56;10.30;99.90
22682;DHT22;11508;50.856;4.380;2023-04-24T07:49:21;10.10;99.90
22682;DHT22;11508;50.856;4.380;2023-04-24T07:51:47;9.90;99.90
22682;DHT22;11508;50.856;4.380;2023-04-24T07:54:13;9.80;99.90
22682;DHT22;11508;50.856;4.380;2023-04-24T07:56:41;9.70;99.90
22682;DHT22;11508;50.856;4.380;2023-04-24T07:59:08;9.80;99.90
22682;DHT22;11508;50.856;4.380;2023-04-24T08:01:35;9.80;99.90
22682;DHT22;11508;50.856;4.380;2023-04-24T08:04:01;9.90;99.90
22682;DHT22;11508;50.856;4.380;2023-04-24T08:06:27;10.20;99.90
22682;DHT22;11508;50.856;4.380;2023-04-24T08:08:57;10.60;99.90
22682;DHT22;11508;50.856;4.380;2023-04-24T08:11:23;10.20;99.90
22682;DHT22;11508;50.856;4.380;2023-04-24T08:13:49;10.20;99.90
22682;DHT22;11508;50.856;4.380;2023-04-24T08:16:15;10.20;99.90
22682;DHT22;11508;50.856;4.380;2023-04-24T08:18:41;10.10;99.90
22682;DHT22;11508;50.856;4.380;2023-04-24T08:21:06;10.50;99.90
22682;DHT22;11508;50.856;4.380;2023-04-24T08:23:32;10.70;99.90
22682;DHT22;11508;50.856;4.380;2023-04-24T08:25:58;10.90;99.90
22682;DHT22;11508;50.856;4.380;2023-04-24T08:28:23;11.40;99.90
22682;DHT22;11508;50.856;4.380;2023-04-24T08:30:49;11.60;74.00
22682;DHT22;11508;50.856;4.380;2023-04-24T08:33:21;11.50;1.00
22682;DHT22;11508;50.856;4.380;2023-04-24T08:35:47;11.40;1.00
22682;DHT22;11508;50.856;4.380;2023-04-24T08:38:13;11.00;1.00
22682;DHT22;11508;50.856;4.380;2023-04-24T08:40:38;11.00;1.00
22682;DHT22;11508;50.856;4.380;2023-04-24T08:43:05;10.90;4.20
22682;DHT22;11508;50.856;4.380;2023-04-24T08:45:32;10.90;1.00
22682;DHT22;11508;50.856;4.380;2023-04-24T08:47:58;11.00;1.00
22682;DHT22;11508;50.856;4.380;2023-04-24T08:50:25;11.90;1.00
22682;DHT22;11508;50.856;4.380;2023-04-24T08:52:51;13.10;1.00
22682;DHT22;11508;50.856;4.380;2023-04-24T08:55:20;14.10;99.90
22682;DHT22;11508;50.856;4.380;2023-04-24T08:57:53;14.60;99.90
22682;DHT22;11508;50.856;4.380;2023-04-24T09:00:22;14.30;99.90
22682;DHT22;11508;50.856;4.380;2023-04-24T09:02:53;14.80;99.90
22682;DHT22;11508;50.856;4.380;2023-04-24T09:05:21;14.40;99.90
22682;DHT22;11508;50.856;4.380;2023-04-24T09:07:51;13.00;99.90
22682;DHT22;11508;50.856;4.380;2023-04-24T09:10:19;13.50;99.90
22682;DHT22;11508;50.856;4.380;2023-04-24T09:12:46;13.40;1.00
22682;DHT22;11508;50.856;4.380;2023-04-24T09:15:13;13.10;1.00
22682;DHT22;11508;50.856;4.380;2023-04-24T09:17:39;12.80;1.00
22682;DHT22;11508;50.856;4.380;2023-04-24T09:20:05;12.80;1.00
22682;DHT22;11508;50.856;4.380;2023-04-24T09:22:31;13.00;1.00
22682;DHT22;11508;50.856;4.380;2023-04-24T09:25:05;13.60;1.00
22682;DHT22;11508;50.856;4.380;2023-04-24T09:27:32;13.70;99.90
22682;DHT22;11508;50.856;4.380;2023-04-24T09:29:58;13.10;99.90
22682;DHT22;11508;50.856;4.380;2023-04-24T09:32:25;12.00;99.90
22682;DHT22;11508;50.856;4.380;2023-04-24T09:35:06;11.70;19.80
22682;DHT22;11508;50.856;4.380;2023-04-24T09:37:36;11.60;1.00
22682;DHT22;11508;50.856;4.380;2023-04-24T09:40:19;11.30;1.00
22682;DHT22;11508;50.856;4.380;2023-04-24T09:42:51;11.60;99.90
22682;DHT22;11508;50.856;4.380;2023-04-24T09:45:17;11.80;1.00
22682;DHT22;11508;50.856;4.380;2023-04-24T09:47:43;12.20;1.00
22682;DHT22;11508;50.856;4.380;2023-04-24T09:50:15;13.00;99.90
22682;DHT22;11508;50.856;4.380;2023-04-24T09:52:43;13.40;99.90
22682;DHT22;11508;50.856;4.380;2023-04-24T09:55:19;13.50;99.90
22682;DHT22;11508;50.856;4.380;2023-04-24T09:57:53;13.60;39.40
22682;DHT22;11508;50.856;4.380;2023-04-24T10:00:25;12.70;99.90
22682;DHT22;11508;50.856;4.380;2023-04-24T10:03:02;12.30;99.90
22682;DHT22;11508;50.856;4.380;2023-04-24T10:05:37;12.70;99.90
22682;DHT22;11508;50.856;4.380;2023-04-24T10:08:11;13.20;99.90
22682;DHT22;11508;50.856;4.380;2023-04-24T10:10:44;12.80;99.90
22682;DHT22;11508;50.856;4.380;2023-04-24T10:13:12;12.40;99.90
22682;DHT22;11508;50.856;4.380;2023-04-24T10:15:39;12.40;99.90
22682;DHT22;11508;50.856;4.380;2023-04-24T10:18:07;12.60;99.90
22682;DHT22;11508;50.856;4.380;2023-04-24T10:20:35;12.00;99.90
22682;DHT22;11508;50.856;4.380;2023-04-24T10:23:01;11.80;99.90
22682;DHT22;11508;50.856;4.380;2023-04-24T10:25:33;12.10;99.90
22682;DHT22;11508;50.856;4.380;2023-04-24T10:28:00;12.30;99.90
22682;DHT22;11508;50.856;4.380;2023-04-24T10:30:32;12.20;99.90
22682;DHT22;11508;50.856;4.380;2023-04-24T10:33:04;12.40;35.10
22682;DHT22;11508;50.856;4.380;2023-04-24T10:35:31;12.70;99.90
22682;DHT22;11508;50.856;4.380;2023-04-24T10:38:03;13.40;99.90
22682;DHT22;11508;50.856;4.380;2023-04-24T10:40:33;14.90;99.90
22682;DHT22;11508;50.856;4.380;2023-04-24T10:43:02;15.50;99.90
22682;DHT22;11508;50.856;4.380;2023-04-24T10:45:28;14.30;1.00
22682;DHT22;11508;50.856;4.380;2023-04-24T10:53:17;12.40;1.00
22682;DHT22;11508;50.856;4.380;2023-04-24T10:55:43;12.40;29.00
22682;DHT22;11508;50.856;4.380;2023-04-24T10:58:10;12.40;12.30
22682;DHT22;11508;50.856;4.380;2023-04-24T11:00:38;12.20;10.90
22682;DHT22;11508;50.856;4.380;2023-04-24T11:03:06;12.10;99.90
22682;DHT22;11508;50.856;4.380;2023-04-24T11:08:29;11.90;1.00
22682;DHT22;11508;50.856;4.380;2023-04-24T11:11:02;12.30;99.90
22682;DHT22;11508;50.856;4.380;2023-04-24T11:14:05;13.00;1.00
22682;DHT22;11508;50.856;4.380;2023-04-24T11:21:56;13.10;99.90
22682;DHT22;11508;50.856;4.380;2023-04-24T11:26:55;14.10;99.90
22682;DHT22;11508;50.856;4.380;2023-04-24T11:29:22;14.20;99.90
22682;DHT22;11508;50.856;4.380;2023-04-24T11:31:48;14.80;41.10
22682;DHT22;11508;50.856;4.380;2023-04-24T11:34:17;14.70;98.20
22682;DHT22;11508;50.856;4.380;2023-04-24T11:36:44;14.00;99.90
22682;DHT22;11508;50.856;4.380;2023-04-24T11:39:12;13.00;1.00
22682;DHT22;11508;50.856;4.380;2023-04-24T11:41:38;13.20;99.90
22682;DHT22;11508;50.856;4.380;2023-04-24T11:44:09;13.20;26.80
22682;DHT22;11508;50.856;4.380;2023-04-24T11:46:37;12.90;99.90
22682;DHT22;11508;50.856;4.380;2023-04-24T11:49:05;12.70;99.90
22682;DHT22;11508;50.856;4.380;2023-04-24T11:51:31;13.10;99.90
22682;DHT22;11508;50.856;4.380;2023-04-24T11:53:57;12.90;1.10
22682;DHT22;11508;50.856;4.380;2023-04-24T11:56:23;12.80;1.00
22682;DHT22;11508;50.856;4.380;2023-04-24T11:58:52;13.00;1.00
22682;DHT22;11508;50.856;4.380;2023-04-24T12:01:19;13.40;1.00
22682;DHT22;11508;50.856;4.380;2023-04-24T12:03:50;14.50;99.90
22682;DHT22;11508;50.856;4.380;2023-04-24T12:06:16;15.60;99.90
22682;DHT22;11508;50.856;4.380;2023-04-24T12:08:46;15.60;99.90
22682;DHT22;11508;50.856;4.380;2023-04-24T12:11:15;14.90;99.90
22682;DHT22;11508;50.856;4.380;2023-04-24T12:13:41;13.70;1.00
22682;DHT22;11508;50.856;4.380;2023-04-24T12:16:06;13.50;1.00
22682;DHT22;11508;50.856;4.380;2023-04-24T12:18:32;13.80;99.90
22682;DHT22;11508;50.856;4.380;2023-04-24T12:21:21;14.20;99.90
22682;DHT22;11508;50.856;4.380;2023-04-24T12:23:49;13.80;99.90
22682;DHT22;11508;50.856;4.380;2023-04-24T12:26:17;13.70;99.90
22682;DHT22;11508;50.856;4.380;2023-04-24T12:28:47;14.10;99.90
22682;DHT22;11508;50.856;4.380;2023-04-24T12:31:13;14.50;99.90
22682;DHT22;11508;50.856;4.380;2023-04-24T12:33:39;15.00;99.90
22682;DHT22;11508;50.856;4.380;2023-04-24T12:36:05;14.70;1.00
22682;DHT22;11508;50.856;4.380;2023-04-24T12:38:32;14.60;99.90
22682;DHT22;11508;50.856;4.380;2023-04-24T12:41:06;15.40;1.00
22682;DHT22;11508;50.856;4.380;2023-04-24T12:43:32;15.30;99.90
22682;DHT22;11508;50.856;4.380;2023-04-24T12:45:58;15.80;99.90
22682;DHT22;11508;50.856;4.380;2023-04-24T12:48:27;15.00;67.10
22682;DHT22;11508;50.856;4.380;2023-04-24T12:50:53;14.90;1.00
22682;DHT22;11508;50.856;4.380;2023-04-24T12:53:19;14.80;1.00
22682;DHT22;11508;50.856;4.380;2023-04-24T12:55:44;14.80;99.90
22682;DHT22;11508;50.856;4.380;2023-04-24T12:58:12;15.40;39.50
22682;DHT22;11508;50.856;4.380;2023-04-24T13:00:38;15.30;54.50
22682;DHT22;11508;50.856;4.380;2023-04-24T13:03:04;16.10;99.90
22682;DHT22;11508;50.856;4.380;2023-04-24T13:05:30;16.20;99.90
22682;DHT22;11508;50.856;4.380;2023-04-24T13:07:57;15.80;1.00
22682;DHT22;11508;50.856;4.380;2023-04-24T13:10:23;15.80;99.90
22682;DHT22;11508;50.856;4.380;2023-04-24T13:12:49;15.70;99.90
22682;DHT22;11508;50.856;4.380;2023-04-24T13:15:14;15.60;99.90
22682;DHT22;11508;50.856;4.380;2023-04-24T13:17:40;15.70;99.90
22682;DHT22;11508;50.856;4.380;2023-04-24T13:20:08;15.60;1.00
22682;DHT22;11508;50.856;4.380;2023-04-24T13:22:33;15.60;1.00
22682;DHT22;11508;50.856;4.380;2023-04-24T13:24:59;15.90;99.90
22682;DHT22;11508;50.856;4.380;2023-04-24T13:27:26;15.40;99.90
22682;DHT22;11508;50.856;4.380;2023-04-24T13:29:52;15.00;1.20
22682;DHT22;11508;50.856;4.380;2023-04-24T13:32:18;14.60;99.90
22682;DHT22;11508;50.856;4.380;2023-04-24T13:34:43;14.10;45.20
22682;DHT22;11508;50.856;4.380;2023-04-24T13:37:09;14.30;1.00
22682;DHT22;11508;50.856;4.380;2023-04-24T13:39:35;14.50;99.90
22682;DHT22;11508;50.856;4.380;2023-04-24T13:42:02;14.90;99.90
22682;DHT22;11508;50.856;4.380;2023-04-24T13:44:28;15.30;1.00
22682;DHT22;11508;50.856;4.380;2023-04-24T13:46:55;14.80;1.00
22682;DHT22;11508;50.856;4.380;2023-04-24T13:49:23;14.70;1.00
22682;DHT22;11508;50.856;4.380;2023-04-24T13:51:54;14.10;99.90
22682;DHT22;11508;50.856;4.380;2023-04-24T13:54:20;14.30;99.90
22682;DHT22;11508;50.856;4.380;2023-04-24T13:56:47;14.10;1.00
22682;DHT22;11508;50.856;4.380;2023-04-24T13:59:13;14.50;1.00
22682;DHT22;11508;50.856;4.380;2023-04-24T14:01:38;15.20;1.00
22682;DHT22;11508;50.856;4.380;2023-04-24T14:04:04;15.50;99.90
22682;DHT22;11508;50.856;4.380;2023-04-24T14:06:30;15.40;99.90
22682;DHT22;11508;50.856;4.380;2023-04-24T14:08:56;15.20;1.00
22682;DHT22;11508;50.856;4.380;2023-04-24T14:11:22;15.10;99.90
22682;DHT22;11508;50.856;4.380;2023-04-24T14:13:49;15.30;99.90
22682;DHT22;11508;50.856;4.380;2023-04-24T14:16:15;15.10;99.90
22682;DHT22;11508;50.856;4.380;2023-04-24T14:18:41;14.40;99.90
22682;DHT22;11508;50.856;4.380;2023-04-24T14:21:06;14.10;99.70
22682;DHT22;11508;50.856;4.380;2023-04-24T14:23:33;14.00;99.90
22682;DHT22;11508;50.856;4.380;2023-04-24T14:25:59;13.90;99.90
22682;DHT22;11508;50.856;4.380;2023-04-24T14:28:25;14.10;99.90
22682;DHT22;11508;50.856;4.380;2023-04-24T14:30:51;14.40;99.90
22682;DHT22;11508;50.856;4.380;2023-04-24T14:33:18;14.60;55.10
22682;DHT22;11508;50.856;4.380;2023-04-24T14:35:46;14.80;60.80
22682;DHT22;11508;50.856;4.380;2023-04-24T14:38:11;14.90;1.00
22682;DHT22;11508;50.856;4.380;2023-04-24T14:40:37;14.80;1.00
22682;DHT22;11508;50.856;4.380;2023-04-24T14:43:03;14.70;1.00
22682;DHT22;11508;50.856;4.380;2023-04-24T14:45:29;14.20;1.00
22682;DHT22;11508;50.856;4.380;2023-04-24T14:47:55;14.00;39.60
22682;DHT22;11508;50.856;4.380;2023-04-24T14:50:21;14.30;1.00
22682;DHT22;11508;50.856;4.380;2023-04-24T14:52:47;13.70;99.90
22682;DHT22;11508;50.856;4.380;2023-04-24T14:55:13;13.80;1.00
22682;DHT22;11508;50.856;4.380;2023-04-24T14:57:40;14.00;28.40
22682;DHT22;11508;50.856;4.380;2023-04-24T15:00:07;14.00;1.00
22682;DHT22;11508;50.856;4.380;2023-04-24T15:02:35;14.20;1.00
22682;DHT22;11508;50.856;4.380;2023-04-24T15:05:05;13.90;99.90
22682;DHT22;11508;50.856;4.380;2023-04-24T15:07:31;13.50;99.90
22682;DHT22;11508;50.856;4.380;2023-04-24T15:09:57;13.50;99.90
22682;DHT22;11508;50.856;4.380;2023-04-24T15:12:23;13.60;99.90
22682;DHT22;11508;50.856;4.380;2023-04-24T15:14:48;14.10;99.90
22682;DHT22;11508;50.856;4.380;2023-04-24T15:17:14;14.50;99.90
22682;DHT22;11508;50.856;4.380;2023-04-24T15:19:40;14.30;99.90
22682;DHT22;11508;50.856;4.380;2023-04-24T15:22:05;13.70;99.90
22682;DHT22;11508;50.856;4.380;2023-04-24T15:24:31;14.00;99.90
22682;DHT22;11508;50.856;4.380;2023-04-24T15:26:59;13.60;99.90
22682;DHT22;11508;50.856;4.380;2023-04-24T15:29:25;13.50;99.90
22682;DHT22;11508;50.856;4.380;2023-04-24T15:31:52;13.70;99.90
22682;DHT22;11508;50.856;4.380;2023-04-24T15:34:18;13.50;99.90
22682;DHT22;11508;50.856;4.380;2023-04-24T15:36:43;13.60;99.90
22682;DHT22;11508;50.856;4.380;2023-04-24T15:39:10;14.00;99.90
22682;DHT22;11508;50.856;4.380;2023-04-24T15:41:37;14.10;99.90
22682;DHT22;11508;50.856;4.380;2023-04-24T15:44:03;14.10;99.90
22682;DHT22;11508;50.856;4.380;2023-04-24T15:46:30;14.00;1.00
22682;DHT22;11508;50.856;4.380;2023-04-24T15:48:57;13.80;1.00
22682;DHT22;11508;50.856;4.380;2023-04-24T15:51:23;13.70;1.00
22682;DHT22;11508;50.856;4.380;2023-04-24T15:53:48;13.40;1.00